Time;durP1;ratioP1;P1;durP2;ratioP2;P2;SDS_P1;SDS_P2;PMS_P1;PMS_P2;Temp;Humidity;BMP_temperature;BMP_pressure;BME280_temperature;BME280_humidity;BME280_pressure;Samples;Min_cycle;Max_cycle;Signal;HPM_P1;HPM_P2
2021/06/19 00:02:09;;;;;;;;;;;;;;;;;;5140024;27;19912;-67
2021/06/19 00:04:35;;;;;;;;;;;;;;;;;;5138151;27;20290;-66
2021/06/19 00:07:00;;;;;;;;;;;;;;;;;;5137512;27;19911;-66
2021/06/19 00:09:26;;;;;;;;;;;;;;;;;;5137118;27;19968;-66
2021/06/19 00:11:52;;;;;;;;;;;;;;;;;;5133696;27;20015;-68
2021/06/19 00:14:18;;;;;;;;;;;;;;;;;;5138313;27;19994;-66
2021/06/19 00:16:44;;;;;;;;;;;;;;;;;;5138292;27;20278;-66
2021/06/19 00:19:10;;;;;;;;;;;;;;;;;;5137621;27;20061;-66
2021/06/19 00:21:36;;;;;;;;;;;;;;;;;;5136798;27;20408;-66
2021/06/19 00:24:01;;;;;;;;;;;;;;;;;;5135123;27;19965;-66
2021/06/19 00:26:27;;;;;;;;;;;;;;;;;;5136255;27;19911;-66
2021/06/19 00:28:53;;;;;;;;;;;;;;;;;;5139048;27;19931;-66
2021/06/19 00:31:19;;;;;;;;;;;;;;;;;;5136499;27;19924;-66
2021/06/19 00:33:45;;;;;;;;;;;;;;;;;;5136112;27;20003;-67
2021/06/19 00:36:11;;;;;;;;;;;;;;;;;;5139172;27;19963;-67
2021/06/19 00:38:37;;;;;;;;;;;;;;;;;;5133520;27;19926;-66
2021/06/19 00:41:03;;;;;;;;;;;;;;;;;;5140505;27;20313;-66
2021/06/19 00:43:29;;;;;;;;;;;;;;;;;;5136861;27;19915;-66
2021/06/19 00:45:54;;;;;;;;;;;;;;;;;;5136656;27;20369;-70
2021/06/19 00:48:21;;;;;;;;;;;;;;;;;;5136680;27;20006;-70
2021/06/19 00:50:47;;;;;;;;;;;;;;;;;;5132140;27;19920;-70
2021/06/19 00:53:13;;;;;;;;;;;;;;;;;;5138656;27;19907;-70
2021/06/19 00:55:39;;;;;;;;;;;;;;;;;;5118475;27;19915;-70
2021/06/19 00:58:05;;;;;;;;;;;;;;;;;;5136587;27;19911;-70
2021/06/19 01:00:31;;;;;;;;;;;;;;;;;;5136534;27;19980;-70
2021/06/19 01:02:57;;;;;;;;;;;;;;;;;;5115728;27;19915;-70
2021/06/19 01:05:23;;;;;;;;;;;;;;;;;;5136326;27;20285;-70
2021/06/19 01:07:48;;;;;;;;;;;;;;;;;;5119545;27;20433;-70
2021/06/19 01:10:14;;;;;;;;;;;;;;;;;;5136308;27;19919;-70
2021/06/19 01:12:40;;;;;;;;;;;;;;;;;;5136338;27;20370;-70
2021/06/19 01:15:06;;;;;;;;;;;;;;;;;;5134984;27;19938;-70
2021/06/19 01:17:32;;;;;;;;;;;;;;;;;;5133822;27;20370;-70
2021/06/19 01:19:58;;;;;;;;;;;;;;;;;;5120410;27;19919;-70
2021/06/19 01:22:24;;;;;;;;;;;;;;;;;;5136278;27;20363;-70
2021/06/19 01:24:51;;;;;;;;;;;;;;;;;;5136261;27;20058;-70
2021/06/19 01:27:17;;;;;;;;;;;;;;;;;;5135788;27;19974;-70
2021/06/19 01:29:42;;;;;;;;;;;;;;;;;;5131454;27;19998;-70
2021/06/19 01:32:08;;;;;;;;;;;;;;;;;;5139391;27;20286;-70
2021/06/19 01:34:34;;;;;;;;;;;;;;;;;;5135919;27;19911;-70
2021/06/19 01:37:00;;;;;;;;;;;;;;;;;;5135440;27;20255;-70
2021/06/19 01:39:26;;;;;;;;;;;;;;;;;;5135714;27;19915;-71
2021/06/19 01:41:52;;;;;;;;;;;;;;;;;;5132992;27;19912;-71
2021/06/19 01:44:18;;;;;;;;;;;;;;;;;;5136443;27;19915;-70
2021/06/19 01:46:44;;;;;;;;;;;;;;;;;;5136819;27;19907;-71
2021/06/19 01:49:10;;;;;;;;;;;;;;;;;;5135230;27;19919;-70
2021/06/19 01:51:36;;;;;;;;;;;;;;;;;;5135459;27;19926;-70
2021/06/19 01:54:01;;;;;;;;;;;;;;;;;;5133885;27;19911;-71
2021/06/19 01:56:27;;;;;;;;;;;;;;;;;;5116201;27;19907;-70
2021/06/19 01:58:53;;;;;;;;;;;;;;;;;;5136950;27;19907;-70
2021/06/19 02:01:19;;;;;;;;;;;;;;;;;;5135038;27;20330;-70
2021/06/19 02:03:45;;;;;;;;;;;;;;;;;;5135512;27;20385;-70
2021/06/19 02:06:11;;;;;;;;;;;;;;;;;;5135356;27;19923;-71
2021/06/19 02:08:37;;;;;;;;;;;;;;;;;;5131055;27;20384;-70
2021/06/19 02:11:03;;;;;;;;;;;;;;;;;;5138054;27;19922;-70
2021/06/19 02:13:29;;;;;;;;;;;;;;;;;;5135281;27;19916;-70
2021/06/19 02:15:55;;;;;;;;;;;;;;;;;;5135314;27;19911;-71
2021/06/19 02:18:21;;;;;;;;;;;;;;;;;;5134710;27;19911;-72
2021/06/19 02:20:51;;;;;;;;;;;;;;;;;;5131244;27;20342;-71
2021/06/19 02:23:17;;;;;;;;;;;;;;;;;;5135634;27;19994;-71
2021/06/19 02:25:44;;;;;;;;;;;;;;;;;;5117986;27;19943;-71
2021/06/19 02:28:10;;;;;;;;;;;;;;;;;;5134485;27;19916;-70
2021/06/19 02:30:36;;;;;;;;;;;;;;;;;;5116764;27;19984;-70
2021/06/19 02:33:02;;;;;;;;;;;;;;;;;;5133507;27;20389;-71
2021/06/19 02:35:28;;;;;;;;;;;;;;;;;;5132892;27;19907;-71
2021/06/19 02:37:53;;;;;;;;;;;;;;;;;;5138498;27;19913;-70
2021/06/19 02:40:19;;;;;;;;;;;;;;;;;;5134504;27;20293;-70
2021/06/19 02:42:45;;;;;;;;;;;;;;;;;;5134500;27;19993;-71
2021/06/19 02:45:12;;;;;;;;;;;;;;;;;;5134391;27;20385;-70
2021/06/19 02:47:38;;;;;;;;;;;;;;;;;;5116017;27;19911;-71
2021/06/19 02:50:04;;;;;;;;;;;;;;;;;;5138306;27;19930;-71
2021/06/19 02:52:29;;;;;;;;;;;;;;;;;;5134407;27;19921;-71
2021/06/19 02:54:55;;;;;;;;;;;;;;;;;;5133519;27;20384;-70
2021/06/19 02:57:21;;;;;;;;;;;;;;;;;;5134263;27;19911;-70
2021/06/19 02:59:47;;;;;;;;;;;;;;;;;;5131893;27;19982;-70
2021/06/19 03:02:13;;;;;;;;;;;;;;;;;;5149072;27;19959;-71
2021/06/19 03:04:39;;;;;;;;;;;;;;;;;;5135164;27;20388;-71
2021/06/19 03:07:05;;;;;;;;;;;;;;;;;;5134042;27;19996;-71
2021/06/19 03:09:31;;;;;;;;;;;;;;;;;;5134024;27;20370;-71
2021/06/19 03:11:57;;;;;;;;;;;;;;;;;;5130212;27;19963;-71
2021/06/19 03:14:22;;;;;;;;;;;;;;;;;;5148661;27;19911;-71
2021/06/19 03:16:48;;;;;;;;;;;;;;;;;;5135209;27;19986;-71
2021/06/19 03:19:14;;;;;;;;;;;;;;;;;;5134274;27;19912;-71
2021/06/19 03:21:42;;;;;;;;;;;;;;;;;;5133497;27;19919;-71
2021/06/19 03:24:08;;;;;;;;;;;;;;;;;;5129230;27;20002;-71
2021/06/19 03:26:34;;;;;;;;;;;;;;;;;;5128614;27;19999;-71
2021/06/19 03:29:00;;;;;;;;;;;;;;;;;;5137162;27;19911;-71
2021/06/19 03:31:28;;;;;;;;;;;;;;;;;;5133985;27;20285;-71
2021/06/19 03:33:53;;;;;;;;;;;;;;;;;;5133421;27;19911;-71
2021/06/19 03:36:19;;;;;;;;;;;;;;;;;;5129750;27;19915;-71
2021/06/19 03:38:45;;;;;;;;;;;;;;;;;;5130159;27;19920;-71
2021/06/19 03:41:11;;;;;;;;;;;;;;;;;;5136346;27;19994;-71
2021/06/19 03:43:37;;;;;;;;;;;;;;;;;;5115745;28;19911;-71
2021/06/19 03:46:03;;;;;;;;;;;;;;;;;;5133728;27;19915;-71
2021/06/19 03:48:29;;;;;;;;;;;;;;;;;;5130529;27;19911;-71
2021/06/19 03:50:55;;;;;;;;;;;;;;;;;;5131051;27;20011;-71
2021/06/19 03:53:21;;;;;;;;;;;;;;;;;;5134189;27;19912;-71
2021/06/19 03:55:46;;;;;;;;;;;;;;;;;;5134811;27;19994;-71
2021/06/19 03:58:13;;;;;;;;;;;;;;;;;;5133635;27;19911;-71
2021/06/19 04:00:39;;;;;;;;;;;;;;;;;;5131421;27;19911;-71
2021/06/19 04:03:05;;;;;;;;;;;;;;;;;;5132448;27;19918;-71
2021/06/19 04:05:30;;;;;;;;;;;;;;;;;;5131970;27;19920;-71
2021/06/19 04:07:56;;;;;;;;;;;;;;;;;;5135744;27;19919;-71
2021/06/19 04:10:22;;;;;;;;;;;;;;;;;;5132959;27;19928;-71
2021/06/19 04:12:48;;;;;;;;;;;;;;;;;;5132707;27;20279;-71
2021/06/19 04:15:14;;;;;;;;;;;;;;;;;;5133638;27;19918;-69
2021/06/19 04:17:40;;;;;;;;;;;;;;;;;;5129237;28;19911;-69
2021/06/19 04:20:06;;;;;;;;;;;;;;;;;;5137094;27;20790;-73
2021/06/19 04:22:32;;;;;;;;;;;;;;;;;;5133541;27;19953;-70
2021/06/19 04:24:58;;;;;;;;;;;;;;;;;;5116561;27;19911;-69
2021/06/19 04:27:24;;;;;;;;;;;;;;;;;;5119356;27;19910;-69
2021/06/19 04:29:50;;;;;;;;;;;;;;;;;;5133813;27;19931;-69
2021/06/19 04:32:16;;;;;;;;;;;;;;;;;;5138799;27;19915;-69
2021/06/19 04:34:42;;;;;;;;;;;;;;;;;;5137942;27;19908;-70
2021/06/19 04:37:07;;;;;;;;;;;;;;;;;;5139321;27;20358;-69
2021/06/19 04:39:33;;;;;;;;;;;;;;;;;;5118482;27;19983;-70
2021/06/19 04:44:41;;;;;;;;;;;;;;;;;;5135696;27;19907;-70
2021/06/19 04:47:07;;;;;;;;;;;;;;;;;;5147888;27;19915;-70
2021/06/19 04:49:33;;;;;;;;;;;;;;;;;;5136769;27;19911;-69
2021/06/19 04:51:59;;;;;;;;;;;;;;;;;;5136426;27;19926;-72
2021/06/19 04:54:25;;;;;;;;;;;;;;;;;;5136345;27;19911;-72
2021/06/19 04:56:51;;;;;;;;;;;;;;;;;;5133792;27;19919;-74
2021/06/19 04:59:16;;;;;;;;;;;;;;;;;;5137582;27;19911;-73
2021/06/19 05:01:42;;;;;;;;;;;;;;;;;;5139191;27;19908;-73
2021/06/19 05:04:08;;;;;;;;;;;;;;;;;;5136749;27;19919;-70
2021/06/19 05:06:35;;;;;;;;;;;;;;;;;;5136039;27;19949;-72
2021/06/19 05:09:01;;;;;;;;;;;;;;;;;;5134734;27;20266;-74
2021/06/19 05:11:27;;;;;;;;;;;;;;;;;;5135511;27;20006;-72
2021/06/19 05:13:52;;;;;;;;;;;;;;;;;;5119683;27;19907;-72
2021/06/19 05:16:18;;;;;;;;;;;;;;;;;;5136370;27;19911;-72
2021/06/19 05:18:44;;;;;;;;;;;;;;;;;;5136617;27;19963;-72
2021/06/19 05:21:10;;;;;;;;;;;;;;;;;;5135294;27;19915;-70
2021/06/19 05:23:36;;;;;;;;;;;;;;;;;;5132714;27;20006;-69
2021/06/19 05:26:02;;;;;;;;;;;;;;;;;;5139099;27;19907;-70
2021/06/19 05:28:28;;;;;;;;;;;;;;;;;;5135968;27;19912;-69
2021/06/19 05:30:54;;;;;;;;;;;;;;;;;;5117539;27;19919;-70
2021/06/19 05:33:19;;;;;;;;;;;;;;;;;;5135934;27;19955;-68
2021/06/19 05:35:45;;;;;;;;;;;;;;;;;;5131146;27;20511;-68
2021/06/19 05:38:11;;;;;;;;;;;;;;;;;;5138514;27;20014;-68
2021/06/19 05:40:37;;;;;;;;;;;;;;;;;;5136011;27;19914;-70
2021/06/19 05:43:03;;;;;;;;;;;;;;;;;;5135967;27;19969;-68
2021/06/19 05:45:29;;;;;;;;;;;;;;;;;;5135941;27;19911;-72
2021/06/19 05:47:55;;;;;;;;;;;;;;;;;;5133159;27;19911;-70
2021/06/19 05:50:21;;;;;;;;;;;;;;;;;;5135352;27;19911;-70
2021/06/19 05:52:47;;;;;;;;;;;;;;;;;;5136654;27;20378;-66
2021/06/19 05:55:12;;;;;;;;;;;;;;;;;;5135703;27;19911;-70
2021/06/19 05:57:38;;;;;;;;;;;;;;;;;;5135119;27;20014;-70
2021/06/19 06:00:04;;;;;;;;;;;;;;;;;;5134221;27;19911;-70
2021/06/19 06:02:30;;;;;;;;;;;;;;;;;;5133045;27;20012;-70
2021/06/19 06:04:56;;;;;;;;;;;;;;;;;;5136852;27;19950;-70
2021/06/19 06:07:22;;;;;;;;;;;;;;;;;;5135153;27;20312;-70
2021/06/19 06:09:48;;;;;;;;;;;;;;;;;;5134584;27;19988;-70
2021/06/19 06:12:14;;;;;;;;;;;;;;;;;;5134810;27;20381;-70
2021/06/19 06:14:40;;;;;;;;;;;;;;;;;;5129873;27;19918;-70
2021/06/19 06:17:05;;;;;;;;;;;;;;;;;;5137029;27;19907;-71
2021/06/19 06:19:31;;;;;;;;;;;;;;;;;;5133557;27;19911;-71
2021/06/19 06:21:57;;;;;;;;;;;;;;;;;;5133258;27;19911;-70
2021/06/19 06:24:23;;;;;;;;;;;;;;;;;;5133555;27;19911;-71
2021/06/19 06:26:49;;;;;;;;;;;;;;;;;;5130140;27;19948;-70
2021/06/19 06:29:15;;;;;;;;;;;;;;;;;;5135453;27;19947;-70
2021/06/19 06:31:41;;;;;;;;;;;;;;;;;;5135566;27;19915;-71
2021/06/19 06:34:07;;;;;;;;;;;;;;;;;;5134552;27;20393;-71
2021/06/19 06:36:33;;;;;;;;;;;;;;;;;;5133595;27;19911;-71
2021/06/19 06:39:02;;;;;;;;;;;;;;;;;;5132428;27;19998;-71
2021/06/19 06:41:28;;;;;;;;;;;;;;;;;;5133347;27;19907;-71
2021/06/19 06:43:54;;;;;;;;;;;;;;;;;;5136677;27;19958;-71
2021/06/19 06:46:20;;;;;;;;;;;;;;;;;;5134049;27;19997;-71
2021/06/19 06:48:46;;;;;;;;;;;;;;;;;;5132035;27;20537;-71
2021/06/19 06:51:12;;;;;;;;;;;;;;;;;;5134112;27;19919;-71
2021/06/19 06:53:38;;;;;;;;;;;;;;;;;;5112260;27;19919;-71
2021/06/19 06:56:03;;;;;;;;;;;;;;;;;;5137888;27;19912;-71
2021/06/19 06:58:29;;;;;;;;;;;;;;;;;;5133101;27;19918;-71
2021/06/19 07:00:55;;;;;;;;;;;;;;;;;;5133766;27;20251;-71
2021/06/19 07:03:23;;;;;;;;;;;;;;;;;;5134005;27;19911;-70
2021/06/19 07:05:49;;;;;;;;;;;;;;;;;;5131117;27;19911;-70
2021/06/19 07:08:15;;;;;;;;;;;;;;;;;;5135335;27;19922;-70
2021/06/19 07:10:41;;;;;;;;;;;;;;;;;;5134241;27;19920;-70
2021/06/19 07:13:06;;;;;;;;;;;;;;;;;;5134128;27;20366;-70
2021/06/19 07:15:32;;;;;;;;;;;;;;;;;;5115693;27;19911;-70
2021/06/19 07:17:58;;;;;;;;;;;;;;;;;;5113418;27;19918;-70
2021/06/19 07:20:24;;;;;;;;;;;;;;;;;;5132855;27;19934;-69
2021/06/19 07:22:50;;;;;;;;;;;;;;;;;;5135230;27;20413;-69
2021/06/19 07:25:16;;;;;;;;;;;;;;;;;;5134058;27;20015;-71
2021/06/19 07:27:42;;;;;;;;;;;;;;;;;;5133746;27;19915;-69
2021/06/19 07:30:08;;;;;;;;;;;;;;;;;;5132103;27;19911;-70
2021/06/19 07:32:33;;;;;;;;;;;;;;;;;;5130347;27;19927;-71
2021/06/19 07:34:59;;;;;;;;;;;;;;;;;;5136815;27;19911;-70
2021/06/19 07:37:25;;;;;;;;;;;;;;;;;;5133922;27;20352;-72
2021/06/19 07:39:53;;;;;;;;;;;;;;;;;;5132716;27;19918;-72
2021/06/19 07:42:19;;;;;;;;;;;;;;;;;;5133524;27;19915;-71
2021/06/19 07:44:45;;;;;;;;;;;;;;;;;;5129370;27;19976;-69
2021/06/19 07:47:10;;;;;;;;;;;;;;;;;;5136660;27;20385;-71
2021/06/19 07:49:37;;;;;;;;;;;;;;;;;;5117493;28;19912;-71
2021/06/19 07:52:03;;;;;;;;;;;;;;;;;;5132666;27;20005;-71
2021/06/19 07:54:29;;;;;;;;;;;;;;;;;;5133486;27;19911;-71
2021/06/19 07:56:55;;;;;;;;;;;;;;;;;;5131411;27;20271;-71
2021/06/19 07:59:21;;;;;;;;;;;;;;;;;;5135217;27;19908;-71
2021/06/19 08:01:47;;;;;;;;;;;;;;;;;;5137636;27;19912;-70
2021/06/19 08:04:12;;;;;;;;;;;;;;;;;;5139710;27;20374;-70
2021/06/19 08:06:38;;;;;;;;;;;;;;;;;;5137277;27;19912;-70
2021/06/19 08:09:04;;;;;;;;;;;;;;;;;;5136424;27;20337;-71
2021/06/19 08:11:30;;;;;;;;;;;;;;;;;;5134844;27;19927;-70
2021/06/19 08:13:56;;;;;;;;;;;;;;;;;;5139536;27;19911;-71
2021/06/19 08:16:22;;;;;;;;;;;;;;;;;;5143800;27;20285;-71
2021/06/19 08:18:48;;;;;;;;;;;;;;;;;;5144530;27;19965;-71
2021/06/19 08:21:14;;;;;;;;;;;;;;;;;;5137167;27;19918;-71
2021/06/19 08:23:40;;;;;;;;;;;;;;;;;;5132536;27;19912;-70
2021/06/19 08:26:06;;;;;;;;;;;;;;;;;;5140281;27;20304;-71
2021/06/19 08:28:33;;;;;;;;;;;;;;;;;;5144585;27;19937;-71
2021/06/19 08:30:59;;;;;;;;;;;;;;;;;;5142009;27;19915;-71
2021/06/19 08:33:25;;;;;;;;;;;;;;;;;;5136468;27;19922;-71
2021/06/19 08:35:51;;;;;;;;;;;;;;;;;;5133904;27;20345;-71
2021/06/19 08:38:17;;;;;;;;;;;;;;;;;;5137846;27;19960;-71
2021/06/19 08:40:43;;;;;;;;;;;;;;;;;;5135036;27;19915;-70
2021/06/19 08:43:09;;;;;;;;;;;;;;;;;;5137250;27;19907;-70
2021/06/19 08:45:34;;;;;;;;;;;;;;;;;;5136692;27;19911;-70
2021/06/19 08:48:00;;;;;;;;;;;;;;;;;;5134964;27;19908;-70
2021/06/19 08:50:26;;;;;;;;;;;;;;;;;;5136099;27;19919;-62
2021/06/19 08:52:52;;;;;;;;;;;;;;;;;;5134768;27;19995;-62
2021/06/19 08:55:18;;;;;;;;;;;;;;;;;;5137013;27;19992;-62
2021/06/19 08:57:44;;;;;;;;;;;;;;;;;;5136898;27;19911;-62
2021/06/19 09:00:10;;;;;;;;;;;;;;;;;;5135615;27;19929;-62
2021/06/19 09:02:37;;;;;;;;;;;;;;;;;;5133229;27;19911;-62
2021/06/19 09:05:09;;;;;;;;;;;;;;;;;;5137502;27;19908;-62
2021/06/19 09:07:35;;;;;;;;;;;;;;;;;;5136409;27;19931;-62
2021/06/19 09:10:01;;;;;;;;;;;;;;;;;;5136474;27;20362;-62
2021/06/19 09:12:27;;;;;;;;;;;;;;;;;;5135023;27;19923;-62
2021/06/19 09:14:52;;;;;;;;;;;;;;;;;;5133107;27;19919;-62
2021/06/19 09:17:18;;;;;;;;;;;;;;;;;;5135527;27;19979;-62
2021/06/19 09:19:44;;;;;;;;;;;;;;;;;;5137766;27;19907;-63
2021/06/19 09:22:10;;;;;;;;;;;;;;;;;;5136367;27;20652;-62
2021/06/19 09:24:36;;;;;;;;;;;;;;;;;;5136206;27;19915;-62
2021/06/19 09:27:02;;;;;;;;;;;;;;;;;;5115410;27;20005;-62
2021/06/19 09:29:28;;;;;;;;;;;;;;;;;;5134535;27;19914;-62
2021/06/19 09:31:54;;;;;;;;;;;;;;;;;;5137938;27;19969;-62
2021/06/19 09:34:20;;;;;;;;;;;;;;;;;;5136218;27;19911;-62
2021/06/19 09:36:48;;;;;;;;;;;;;;;;;;5117281;27;20316;-62
2021/06/19 09:39:13;;;;;;;;;;;;;;;;;;5135826;27;20388;-62
2021/06/19 09:41:39;;;;;;;;;;;;;;;;;;5130790;27;20001;-62
2021/06/19 09:44:05;;;;;;;;;;;;;;;;;;5139339;27;20002;-62
2021/06/19 09:46:31;;;;;;;;;;;;;;;;;;5135707;27;19938;-62
2021/06/19 09:48:57;;;;;;;;;;;;;;;;;;5135952;27;19915;-61
2021/06/19 09:51:26;;;;;;;;;;;;;;;;;;5135308;27;20400;-61
2021/06/19 09:53:52;;;;;;;;;;;;;;;;;;5133017;27;19912;-62
2021/06/19 09:56:18;;;;;;;;;;;;;;;;;;5136589;27;19933;-62
2021/06/19 09:58:44;;;;;;;;;;;;;;;;;;5136475;27;19915;-61
2021/06/19 10:01:10;;;;;;;;;;;;;;;;;;5135182;27;19916;-61
2021/06/19 10:03:36;;;;;;;;;;;;;;;;;;5135151;27;19915;-61
2021/06/19 10:06:02;;;;;;;;;;;;;;;;;;5115045;27;20381;-61
2021/06/19 10:08:28;;;;;;;;;;;;;;;;;;5115769;27;20011;-62
2021/06/19 10:10:54;;;;;;;;;;;;;;;;;;5137206;27;19921;-61
2021/06/19 10:13:21;;;;;;;;;;;;;;;;;;5135048;27;19918;-61
2021/06/19 10:15:47;;;;;;;;;;;;;;;;;;5134117;27;19916;-61
2021/06/19 10:18:13;;;;;;;;;;;;;;;;;;5135054;27;19911;-62
2021/06/19 10:20:39;;;;;;;;;;;;;;;;;;5096010;27;20362;-62
2021/06/19 10:23:05;;;;;;;;;;;;;;;;;;5137992;27;19914;-61
2021/06/19 10:25:32;;;;;;;;;;;;;;;;;;5116348;27;19916;-62
2021/06/19 10:27:58;;;;;;;;;;;;;;;;;;5134266;27;19918;-62
2021/06/19 10:30:24;;;;;;;;;;;;;;;;;;5116433;27;19998;-61
2021/06/19 10:32:50;;;;;;;;;;;;;;;;;;5131222;27;19961;-61
2021/06/19 10:35:17;;;;;;;;;;;;;;;;;;5135969;27;20016;-61
2021/06/19 10:37:43;;;;;;;;;;;;;;;;;;5136210;27;19986;-62
2021/06/19 10:40:08;;;;;;;;;;;;;;;;;;5134331;27;20002;-61
2021/06/19 10:42:34;;;;;;;;;;;;;;;;;;5134602;27;20397;-61
2021/06/19 10:45:00;;;;;;;;;;;;;;;;;;5132669;27;19957;-61
2021/06/19 10:47:26;;;;;;;;;;;;;;;;;;5133870;27;19918;-61
2021/06/19 10:49:52;;;;;;;;;;;;;;;;;;5136412;27;19912;-61
2021/06/19 10:52:18;;;;;;;;;;;;;;;;;;5134041;27;19919;-61
2021/06/19 10:54:45;;;;;;;;;;;;;;;;;;5134042;27;19927;-61
2021/06/19 10:57:11;;;;;;;;;;;;;;;;;;5134265;27;19918;-61
2021/06/19 10:59:37;;;;;;;;;;;;;;;;;;5130382;27;19911;-61
2021/06/19 11:02:03;;;;;;;;;;;;;;;;;;5137533;27;19907;-61
2021/06/19 11:04:29;;;;;;;;;;;;;;;;;;5133702;27;20009;-61
2021/06/19 11:06:55;;;;;;;;;;;;;;;;;;5134080;27;19964;-61
2021/06/19 11:09:26;;;;;;;;;;;;;;;;;;5133919;27;20417;-61
2021/06/19 11:11:52;;;;;;;;;;;;;;;;;;5131235;27;19926;-61
2021/06/19 11:14:18;;;;;;;;;;;;;;;;;;5134559;27;19914;-61
2021/06/19 11:16:44;;;;;;;;;;;;;;;;;;5135222;27;19954;-62
2021/06/19 11:19:10;;;;;;;;;;;;;;;;;;5133823;27;19922;-62
2021/06/19 11:21:38;;;;;;;;;;;;;;;;;;5133407;27;20041;-62
2021/06/19 11:24:04;;;;;;;;;;;;;;;;;;5132727;27;20384;-62
2021/06/19 11:26:30;;;;;;;;;;;;;;;;;;5132296;27;19915;-62
2021/06/19 11:28:56;;;;;;;;;;;;;;;;;;5135577;27;19908;-62
2021/06/19 11:31:22;;;;;;;;;;;;;;;;;;5133712;27;20496;-62
2021/06/19 11:33:49;;;;;;;;;;;;;;;;;;5133351;27;20358;-62
2021/06/19 11:36:15;;;;;;;;;;;;;;;;;;5133796;27;19911;-62
2021/06/19 11:38:41;;;;;;;;;;;;;;;;;;5111067;28;19934;-62
2021/06/19 11:41:06;;;;;;;;;;;;;;;;;;5136912;27;19912;-61
2021/06/19 11:43:32;;;;;;;;;;;;;;;;;;5133396;27;19911;-61
2021/06/19 11:45:58;;;;;;;;;;;;;;;;;;5133879;27;20274;-62
2021/06/19 11:48:24;;;;;;;;;;;;;;;;;;5133921;27;19911;-62
2021/06/19 11:50:50;;;;;;;;;;;;;;;;;;5111770;27;19999;-62
2021/06/19 11:53:16;;;;;;;;;;;;;;;;;;5115926;28;19911;-61
2021/06/19 11:55:42;;;;;;;;;;;;;;;;;;5134339;27;19907;-61
2021/06/19 11:58:08;;;;;;;;;;;;;;;;;;5133773;27;19959;-62
2021/06/19 12:00:33;;;;;;;;;;;;;;;;;;5114911;27;20279;-62
2021/06/19 12:03:00;;;;;;;;;;;;;;;;;;5131255;27;19912;-62
2021/06/19 12:05:26;;;;;;;;;;;;;;;;;;5133415;27;20012;-61
2021/06/19 12:07:53;;;;;;;;;;;;;;;;;;5134737;27;20251;-62
2021/06/19 12:10:19;;;;;;;;;;;;;;;;;;5132979;27;19919;-62
2021/06/19 12:12:45;;;;;;;;;;;;;;;;;;5115098;28;20270;-62
2021/06/19 12:15:11;;;;;;;;;;;;;;;;;;5132996;27;19960;-61
2021/06/19 12:17:37;;;;;;;;;;;;;;;;;;5129904;27;20370;-61
2021/06/19 12:20:03;;;;;;;;;;;;;;;;;;5135718;27;19907;-62
2021/06/19 12:22:28;;;;;;;;;;;;;;;;;;5133424;27;19911;-61
2021/06/19 12:24:54;;;;;;;;;;;;;;;;;;5133425;27;19918;-61
2021/06/19 12:27:20;;;;;;;;;;;;;;;;;;5132754;27;19917;-61
2021/06/19 12:29:46;;;;;;;;;;;;;;;;;;5129422;27;19965;-61
2021/06/19 12:32:12;;;;;;;;;;;;;;;;;;5135426;27;19923;-61
2021/06/19 12:34:38;;;;;;;;;;;;;;;;;;5134083;27;19907;-62
2021/06/19 12:37:04;;;;;;;;;;;;;;;;;;5132773;27;20339;-62
2021/06/19 12:39:30;;;;;;;;;;;;;;;;;;5133050;27;20014;-62
2021/06/19 12:41:56;;;;;;;;;;;;;;;;;;5130737;27;20402;-62
2021/06/19 12:44:21;;;;;;;;;;;;;;;;;;5133699;27;19914;-61
2021/06/19 12:46:47;;;;;;;;;;;;;;;;;;5135752;27;19914;-61
2021/06/19 12:49:13;;;;;;;;;;;;;;;;;;5136910;27;20025;-61
2021/06/19 12:51:40;;;;;;;;;;;;;;;;;;5136080;27;19931;-62
2021/06/19 12:54:06;;;;;;;;;;;;;;;;;;5135706;27;19915;-61
2021/06/19 12:56:32;;;;;;;;;;;;;;;;;;5134834;27;20317;-62
2021/06/19 12:58:57;;;;;;;;;;;;;;;;;;5139130;27;19991;-61
2021/06/19 13:01:23;;;;;;;;;;;;;;;;;;5136703;27;19907;-61
2021/06/19 13:03:50;;;;;;;;;;;;;;;;;;5136173;27;19916;-61
2021/06/19 13:06:16;;;;;;;;;;;;;;;;;;5138168;27;19907;-61
2021/06/19 13:08:42;;;;;;;;;;;;;;;;;;5131961;27;20368;-62
2021/06/19 13:11:08;;;;;;;;;;;;;;;;;;5139780;27;19915;-61
2021/06/19 13:13:34;;;;;;;;;;;;;;;;;;5136473;27;20069;-62
2021/06/19 13:16:00;;;;;;;;;;;;;;;;;;5135922;27;19912;-62
2021/06/19 13:18:26;;;;;;;;;;;;;;;;;;5137986;27;19911;-61
2021/06/19 13:20:52;;;;;;;;;;;;;;;;;;5132920;27;19920;-62
2021/06/19 13:23:18;;;;;;;;;;;;;;;;;;5118668;27;20290;-62
2021/06/19 13:25:44;;;;;;;;;;;;;;;;;;5139045;27;19907;-62
2021/06/19 13:28:10;;;;;;;;;;;;;;;;;;5135980;27;19912;-62
2021/06/19 13:30:36;;;;;;;;;;;;;;;;;;5135531;27;20380;-62
2021/06/19 13:33:02;;;;;;;;;;;;;;;;;;5147435;27;20011;-61
2021/06/19 13:35:28;;;;;;;;;;;;;;;;;;5135105;27;20385;-61
2021/06/19 13:37:54;;;;;;;;;;;;;;;;;;5138236;27;19968;-61
2021/06/19 13:40:19;;;;;;;;;;;;;;;;;;5135434;27;19918;-61
2021/06/19 13:42:45;;;;;;;;;;;;;;;;;;5135820;27;20263;-61
2021/06/19 13:45:11;;;;;;;;;;;;;;;;;;5147612;27;19911;-61
2021/06/19 13:47:37;;;;;;;;;;;;;;;;;;5131896;27;20013;-62
2021/06/19 13:50:03;;;;;;;;;;;;;;;;;;5138483;27;19908;-61
2021/06/19 13:52:29;;;;;;;;;;;;;;;;;;5135482;27;19926;-61
2021/06/19 13:54:55;;;;;;;;;;;;;;;;;;5131179;27;19962;-61
2021/06/19 13:57:21;;;;;;;;;;;;;;;;;;5134637;27;19956;-61
2021/06/19 13:59:47;;;;;;;;;;;;;;;;;;5131686;27;19965;-61
2021/06/19 14:02:13;;;;;;;;;;;;;;;;;;5137910;27;20134;-61
2021/06/19 14:04:38;;;;;;;;;;;;;;;;;;5116793;27;19914;-62
2021/06/19 14:07:04;;;;;;;;;;;;;;;;;;5132012;27;19950;-61
2021/06/19 14:09:31;;;;;;;;;;;;;;;;;;5135253;27;19950;-61
2021/06/19 14:11:57;;;;;;;;;;;;;;;;;;5132829;27;20319;-61
2021/06/19 14:14:22;;;;;;;;;;;;;;;;;;5135477;27;19914;-62
2021/06/19 14:16:49;;;;;;;;;;;;;;;;;;5136465;27;19915;-61
2021/06/19 14:19:15;;;;;;;;;;;;;;;;;;5132603;27;20370;-61
2021/06/19 14:21:40;;;;;;;;;;;;;;;;;;5134712;27;19940;-61
2021/06/19 14:24:06;;;;;;;;;;;;;;;;;;5134113;27;19911;-61
2021/06/19 14:26:34;;;;;;;;;;;;;;;;;;5132647;27;20422;-61
2021/06/19 14:29:00;;;;;;;;;;;;;;;;;;5137404;27;20010;-61
2021/06/19 14:31:26;;;;;;;;;;;;;;;;;;5133497;27;20010;-62
2021/06/19 14:33:52;;;;;;;;;;;;;;;;;;5134728;27;19911;-61
2021/06/19 14:36:18;;;;;;;;;;;;;;;;;;5133768;27;19918;-61
2021/06/19 14:38:44;;;;;;;;;;;;;;;;;;5130323;27;19911;-61
2021/06/19 14:41:10;;;;;;;;;;;;;;;;;;5137503;27;19952;-62
2021/06/19 14:43:36;;;;;;;;;;;;;;;;;;5134603;27;20243;-61
2021/06/19 14:46:02;;;;;;;;;;;;;;;;;;5133599;27;19919;-61
2021/06/19 14:48:28;;;;;;;;;;;;;;;;;;5133892;27;19918;-62
2021/06/19 14:50:54;;;;;;;;;;;;;;;;;;5131156;27;19920;-61
2021/06/19 14:53:20;;;;;;;;;;;;;;;;;;5135017;27;19908;-61
2021/06/19 14:55:46;;;;;;;;;;;;;;;;;;5135691;27;20366;-61
2021/06/19 14:58:12;;;;;;;;;;;;;;;;;;5133208;27;20006;-61
2021/06/19 15:00:37;;;;;;;;;;;;;;;;;;5133783;27;19915;-61
2021/06/19 15:03:03;;;;;;;;;;;;;;;;;;5132762;27;19915;-61
2021/06/19 15:05:29;;;;;;;;;;;;;;;;;;5132775;27;20343;-61
2021/06/19 15:07:55;;;;;;;;;;;;;;;;;;5135583;27;19908;-61
2021/06/19 15:10:21;;;;;;;;;;;;;;;;;;5133069;27;19919;-61
2021/06/19 15:12:47;;;;;;;;;;;;;;;;;;5134287;27;19923;-61
2021/06/19 15:15:15;;;;;;;;;;;;;;;;;;5133703;27;20297;-61
2021/06/19 15:17:41;;;;;;;;;;;;;;;;;;5113157;28;19953;-61
2021/06/19 15:20:06;;;;;;;;;;;;;;;;;;5136457;27;20285;-61
2021/06/19 15:22:32;;;;;;;;;;;;;;;;;;5134116;27;19963;-61
2021/06/19 15:25:00;;;;;;;;;;;;;;;;;;5134255;27;20010;-61
2021/06/19 15:27:26;;;;;;;;;;;;;;;;;;5133910;27;19911;-61
2021/06/19 15:29:52;;;;;;;;;;;;;;;;;;5129441;27;19935;-61
2021/06/19 15:32:17;;;;;;;;;;;;;;;;;;5116129;27;20057;-62
2021/06/19 15:34:43;;;;;;;;;;;;;;;;;;5136490;27;20382;-61
2021/06/19 15:37:09;;;;;;;;;;;;;;;;;;5133664;27;19911;-61
2021/06/19 15:39:35;;;;;;;;;;;;;;;;;;5132883;27;20461;-62
2021/06/19 15:42:01;;;;;;;;;;;;;;;;;;5131540;27;20366;-61
2021/06/19 15:44:27;;;;;;;;;;;;;;;;;;5133120;27;19911;-61
2021/06/19 15:46:53;;;;;;;;;;;;;;;;;;5135098;27;20453;-61
2021/06/19 15:49:19;;;;;;;;;;;;;;;;;;5133927;27;19972;-61
2021/06/19 15:51:45;;;;;;;;;;;;;;;;;;5132382;27;19919;-61
2021/06/19 15:54:12;;;;;;;;;;;;;;;;;;5132963;27;19915;-61
2021/06/19 15:56:38;;;;;;;;;;;;;;;;;;5129988;27;19912;-61
2021/06/19 15:59:03;;;;;;;;;;;;;;;;;;5136401;27;20263;-61
2021/06/19 16:01:29;;;;;;;;;;;;;;;;;;5132762;27;19912;-61
2021/06/19 16:03:55;;;;;;;;;;;;;;;;;;5133253;27;19936;-61
2021/06/19 16:06:23;;;;;;;;;;;;;;;;;;5133593;27;19910;-61
2021/06/19 16:08:48;;;;;;;;;;;;;;;;;;5129386;27;20348;-61
2021/06/19 16:11:14;;;;;;;;;;;;;;;;;;5135286;27;19975;-61
2021/06/19 16:13:40;;;;;;;;;;;;;;;;;;5115536;28;19991;-61
2021/06/19 16:16:06;;;;;;;;;;;;;;;;;;5133209;27;19911;-61
2021/06/19 16:18:32;;;;;;;;;;;;;;;;;;5133389;27;19987;-61
2021/06/19 16:20:58;;;;;;;;;;;;;;;;;;5132822;27;20460;-61
2021/06/19 16:23:24;;;;;;;;;;;;;;;;;;5136653;27;19938;-61
2021/06/19 16:25:50;;;;;;;;;;;;;;;;;;5138725;27;19908;-61
2021/06/19 16:28:15;;;;;;;;;;;;;;;;;;5137015;27;19922;-61
2021/06/19 16:30:42;;;;;;;;;;;;;;;;;;5136742;27;19915;-61
2021/06/19 16:33:08;;;;;;;;;;;;;;;;;;5134910;27;19911;-61
2021/06/19 16:35:34;;;;;;;;;;;;;;;;;;5134583;27;20263;-61
2021/06/19 16:38:00;;;;;;;;;;;;;;;;;;5139841;27;19908;-61
2021/06/19 16:40:26;;;;;;;;;;;;;;;;;;5137069;27;20391;-61